createdAt,value
2022-10-15T00:00:44.311Z,14.53
2022-10-15T00:03:11.165Z,13.93
2022-10-15T00:05:39.236Z,14.00
2022-10-15T00:08:06.760Z,14.33
2022-10-15T00:10:33.852Z,13.53
2022-10-15T00:13:00.490Z,14.07
2022-10-15T00:15:28.194Z,14.73
2022-10-15T00:17:54.683Z,13.20
2022-10-15T00:20:21.386Z,13.57
2022-10-15T00:22:48.126Z,13.07
2022-10-15T00:25:14.814Z,13.50
2022-10-15T00:27:41.336Z,14.57
2022-10-15T00:30:08.492Z,13.93
2022-10-15T00:32:35.186Z,13.53
2022-10-15T00:35:01.658Z,14.23
2022-10-15T00:37:28.840Z,14.10
2022-10-15T00:39:55.403Z,14.10
2022-10-15T00:42:22.267Z,13.70
2022-10-15T00:44:48.954Z,14.03
2022-10-15T00:47:40.171Z,13.67
2022-10-15T00:50:07.367Z,14.00
2022-10-15T00:52:43.718Z,13.70
2022-10-15T00:55:19.648Z,13.13
2022-10-15T00:57:48.081Z,14.07
2022-10-15T01:00:17.954Z,13.77
2022-10-15T01:02:45.282Z,15.10
2022-10-15T01:05:12.723Z,14.90
2022-10-15T01:07:39.408Z,15.43
2022-10-15T01:10:06.989Z,14.43
2022-10-15T01:12:45.761Z,14.87
2022-10-15T01:15:15.007Z,13.93
2022-10-15T01:17:52.399Z,12.77
2022-10-15T01:20:47.049Z,13.17
2022-10-15T01:23:46.899Z,12.90
2022-10-15T01:26:53.232Z,13.50
2022-10-15T01:29:22.872Z,13.90
2022-10-15T01:32:07.739Z,15.20
2022-10-15T01:35:01.609Z,14.60
2022-10-15T01:37:28.218Z,14.20
2022-10-15T01:39:59.516Z,13.77
2022-10-15T01:42:30.559Z,14.17
2022-10-15T01:45:07.731Z,16.03
2022-10-15T01:47:58.435Z,16.17
2022-10-15T01:50:27.611Z,16.37
2022-10-15T01:52:55.853Z,15.40
2022-10-15T01:55:24.137Z,15.90
2022-10-15T01:57:51.013Z,14.53
2022-10-15T02:00:17.844Z,15.20
2022-10-15T02:02:44.444Z,16.50
2022-10-15T02:05:15.911Z,16.93
2022-10-15T02:08:05.393Z,17.20
2022-10-15T02:10:57.437Z,14.10
2022-10-15T02:13:34.504Z,15.40
2022-10-15T02:16:13.168Z,14.80
2022-10-15T02:18:52.377Z,16.00
2022-10-15T02:21:28.651Z,15.90
2022-10-15T02:24:22.603Z,14.30
2022-10-15T02:26:50.269Z,16.43
2022-10-15T02:29:20.484Z,16.20
2022-10-15T02:31:48.122Z,16.70
2022-10-15T02:34:20.205Z,16.77
2022-10-15T02:36:47.137Z,17.20
2022-10-15T02:39:17.683Z,18.00
2022-10-15T02:41:45.259Z,19.60
2022-10-15T02:44:11.717Z,16.37
2022-10-15T02:46:38.502Z,17.80
2022-10-15T02:49:05.076Z,18.10
2022-10-15T02:51:33.119Z,17.60
2022-10-15T02:54:00.606Z,19.40
2022-10-15T02:58:56.608Z,16.80
2022-10-15T03:01:23.142Z,18.03
2022-10-15T03:03:49.712Z,19.17
2022-10-15T03:06:16.381Z,19.33
2022-10-15T03:08:43.057Z,18.87
2022-10-15T03:11:09.638Z,18.40
2022-10-15T03:13:37.555Z,18.77
2022-10-15T03:16:09.510Z,18.20
2022-10-15T03:18:39.727Z,17.03
2022-10-15T03:21:07.571Z,19.50
2022-10-15T03:23:35.180Z,18.20
2022-10-15T03:26:01.896Z,18.20
2022-10-15T03:28:28.556Z,17.47
2022-10-15T03:30:55.210Z,18.70
2022-10-15T03:33:25.034Z,16.90
2022-10-15T03:35:52.750Z,18.30
2022-10-15T03:38:19.629Z,19.40
2022-10-15T03:40:46.751Z,18.30
2022-10-15T03:43:13.236Z,18.33
2022-10-15T03:45:39.748Z,18.43
2022-10-15T03:48:06.604Z,17.33
2022-10-15T03:50:33.407Z,17.60
2022-10-15T03:53:03.394Z,17.60
2022-10-15T03:55:29.838Z,18.07
2022-10-15T03:57:56.315Z,16.40
2022-10-15T04:00:22.779Z,18.03
2022-10-15T04:02:49.410Z,18.17
2022-10-15T04:05:15.966Z,18.50
2022-10-15T04:07:42.825Z,17.37
2022-10-15T04:10:09.605Z,19.00
2022-10-15T04:12:36.238Z,17.07
2022-10-15T04:15:03.275Z,16.40
2022-10-15T04:17:29.780Z,16.60
2022-10-15T04:19:56.287Z,18.33
2022-10-15T04:22:23.107Z,17.63
2022-10-15T04:24:49.987Z,19.87
2022-10-15T04:27:17.091Z,19.00
2022-10-15T04:29:43.559Z,18.50
2022-10-15T04:32:15.872Z,21.57
2022-10-15T04:34:42.367Z,22.10
2022-10-15T04:37:09.205Z,20.73
2022-10-15T04:39:37.169Z,23.13
2022-10-15T04:42:04.084Z,21.93
2022-10-15T04:44:30.611Z,21.63
2022-10-15T04:46:57.374Z,21.03
2022-10-15T04:49:23.871Z,21.87
2022-10-15T04:51:52.631Z,20.80
2022-10-15T04:54:19.174Z,21.67
2022-10-15T04:56:45.696Z,23.97
2022-10-15T04:59:12.606Z,23.53
2022-10-15T05:01:40.286Z,23.60
2022-10-15T05:04:06.838Z,23.93
2022-10-15T05:06:34.078Z,22.37
2022-10-15T05:09:01.632Z,22.70
2022-10-15T05:11:28.621Z,22.60
2022-10-15T05:13:56.476Z,23.27
2022-10-15T05:16:26.096Z,23.60
2022-10-15T05:18:56.105Z,23.00
2022-10-15T05:21:24.078Z,25.17
2022-10-15T05:23:51.744Z,23.17
2022-10-15T05:26:20.369Z,23.50
2022-10-15T05:28:47.021Z,21.83
2022-10-15T05:31:19.123Z,22.70
2022-10-15T05:33:47.199Z,21.40
2022-10-15T05:36:27.006Z,21.60
2022-10-15T05:38:56.809Z,25.70
2022-10-15T05:41:23.509Z,23.50
2022-10-15T05:43:50.807Z,26.60
2022-10-15T05:46:18.005Z,26.40
2022-10-15T05:48:48.983Z,24.90
2022-10-15T05:51:15.999Z,26.10
2022-10-15T05:53:43.643Z,25.90
2022-10-15T05:56:10.975Z,26.67
2022-10-15T05:58:37.984Z,26.10
2022-10-15T06:01:07.043Z,25.03
2022-10-15T06:03:34.164Z,24.87
2022-10-15T06:06:00.780Z,24.73
2022-10-15T06:08:30.082Z,25.40
2022-10-15T06:11:05.302Z,26.40
2022-10-15T06:13:38.438Z,26.20
2022-10-15T06:16:05.926Z,27.70
2022-10-15T06:18:32.769Z,26.83
2022-10-15T06:20:59.378Z,27.60
2022-10-15T06:23:26.005Z,26.43
2022-10-15T06:25:52.716Z,26.43
2022-10-15T06:28:19.293Z,25.57
2022-10-15T06:30:45.919Z,22.87
2022-10-15T06:35:40.512Z,27.23
2022-10-15T06:38:07.016Z,22.80
2022-10-15T06:40:33.507Z,23.87
2022-10-15T06:43:04.792Z,26.00
2022-10-15T06:45:31.402Z,26.33
2022-10-15T06:47:57.950Z,24.00
2022-10-15T06:50:24.457Z,25.63
2022-10-15T06:52:50.917Z,28.70
2022-10-15T06:55:17.398Z,32.30
2022-10-15T06:57:44.046Z,29.40
2022-10-15T07:00:11.289Z,29.97
2022-10-15T07:02:37.842Z,25.60
2022-10-15T07:05:04.589Z,24.00
2022-10-15T07:07:31.217Z,25.67
2022-10-15T07:09:57.892Z,24.50
2022-10-15T07:12:24.701Z,24.73
2022-10-15T07:14:51.798Z,26.13
2022-10-15T07:17:18.302Z,25.27
2022-10-15T07:19:44.852Z,25.83
2022-10-15T07:22:11.732Z,24.90
2022-10-15T07:24:38.284Z,24.87
2022-10-15T07:27:08.230Z,24.50
2022-10-15T07:29:44.782Z,24.60
2022-10-15T07:32:11.621Z,24.53
2022-10-15T07:34:38.059Z,23.10
2022-10-15T07:37:04.523Z,23.13
2022-10-15T07:39:31.174Z,22.30
2022-10-15T07:41:57.655Z,23.83
2022-10-15T07:44:24.140Z,23.43
2022-10-15T07:46:50.763Z,23.50
2022-10-15T07:49:17.353Z,23.27
2022-10-15T07:51:43.858Z,22.07
2022-10-15T07:54:10.320Z,24.13
2022-10-15T07:56:36.809Z,23.07
2022-10-15T07:59:03.297Z,23.80
2022-10-15T08:01:29.769Z,23.97
2022-10-15T08:03:56.238Z,24.53
2022-10-15T08:06:22.801Z,22.93
2022-10-15T08:08:50.463Z,22.57
2022-10-15T08:11:17.695Z,22.30
2022-10-15T08:13:46.989Z,22.70
2022-10-15T08:16:14.385Z,22.37
2022-10-15T08:18:41.096Z,21.10
2022-10-15T08:21:08.217Z,22.63
2022-10-15T08:23:35.791Z,20.90
2022-10-15T08:26:03.125Z,22.67
2022-10-15T08:28:30.603Z,23.53
2022-10-15T08:31:02.702Z,21.73
2022-10-15T08:33:32.139Z,20.90
2022-10-15T08:35:58.742Z,19.30
2022-10-15T08:38:25.400Z,19.60
2022-10-15T08:40:55.194Z,19.13
2022-10-15T08:43:30.582Z,19.20
2022-10-15T08:45:59.859Z,17.27
2022-10-15T08:48:34.685Z,17.80
2022-10-15T08:51:14.407Z,18.13
2022-10-15T08:53:46.195Z,18.90
2022-10-15T08:56:17.528Z,17.97
2022-10-15T08:58:59.224Z,17.20
2022-10-15T09:01:32.879Z,16.10
2022-10-15T09:04:06.374Z,15.90
2022-10-15T09:06:39.846Z,15.77
2022-10-15T09:09:31.461Z,15.87
2022-10-15T09:12:09.712Z,14.50
2022-10-15T09:14:39.148Z,14.77
2022-10-15T09:17:14.487Z,14.17
2022-10-15T09:19:43.717Z,13.57
2022-10-15T09:22:15.280Z,16.27
2022-10-15T09:24:41.838Z,13.90
2022-10-15T09:27:34.151Z,14.43
2022-10-15T09:30:00.572Z,12.03
2022-10-15T09:32:36.031Z,10.93
2022-10-15T09:35:25.792Z,10.80
2022-10-15T09:38:05.950Z,10.33
2022-10-15T09:40:41.222Z,9.50
2022-10-15T09:43:10.588Z,7.77
2022-10-15T09:45:37.076Z,7.10
2022-10-15T09:48:15.368Z,6.90
2022-10-15T09:50:53.151Z,7.10
2022-10-15T09:53:45.840Z,7.03
2022-10-15T09:56:19.209Z,6.40
2022-10-15T09:58:54.764Z,6.07
2022-10-15T10:01:29.368Z,5.17
2022-10-15T10:04:22.714Z,4.40
2022-10-15T10:06:58.031Z,3.93
2022-10-15T10:09:39.031Z,4.13
2022-10-15T10:12:07.227Z,3.13
2022-10-15T10:14:55.272Z,3.23
2022-10-15T10:17:23.640Z,3.67
2022-10-15T10:20:15.647Z,2.50
2022-10-15T10:22:47.682Z,2.40
2022-10-15T10:25:31.555Z,2.90
2022-10-15T10:27:59.358Z,2.60
2022-10-15T10:30:25.853Z,6.03
2022-10-15T10:32:57.321Z,2.30
2022-10-15T10:35:34.355Z,1.70
2022-10-15T10:38:02.569Z,1.83
2022-10-15T10:40:32.738Z,2.10
2022-10-15T10:43:17.921Z,1.40
2022-10-15T10:45:58.700Z,1.60
2022-10-15T10:48:38.368Z,1.20
2022-10-15T10:51:09.241Z,1.37
2022-10-15T10:53:50.794Z,1.40
2022-10-15T10:56:22.127Z,1.60
2022-10-15T10:58:52.715Z,1.10
2022-10-15T11:01:19.342Z,1.07
2022-10-15T11:03:48.134Z,1.47
2022-10-15T11:06:32.909Z,1.20
2022-10-15T11:09:27.758Z,1.07
2022-10-15T11:12:08.304Z,1.00
2022-10-15T11:15:07.332Z,1.10
2022-10-15T11:18:11.545Z,0.90
2022-10-15T11:21:05.963Z,0.90
2022-10-15T11:23:39.139Z,1.10
2022-10-15T11:26:37.013Z,0.80
2022-10-15T11:29:12.969Z,0.90
2022-10-15T11:32:02.854Z,0.80
2022-10-15T11:34:42.702Z,1.00
2022-10-15T11:37:15.917Z,0.83
2022-10-15T11:39:52.727Z,0.77
2022-10-15T11:42:26.492Z,1.70
2022-10-15T11:45:25.784Z,1.30
2022-10-15T11:48:22.990Z,0.83
2022-10-15T11:50:56.582Z,1.13
2022-10-15T11:53:32.146Z,1.10
2022-10-15T11:56:10.013Z,1.07
2022-10-15T11:58:43.853Z,1.00
2022-10-15T12:01:19.480Z,0.90
2022-10-15T12:03:57.804Z,0.80
2022-10-15T12:06:27.259Z,0.90
2022-10-15T12:08:55.677Z,0.93
2022-10-15T12:11:43.891Z,0.80
2022-10-15T12:14:40.407Z,0.80
2022-10-15T12:19:50.903Z,1.00
2022-10-15T12:22:54.966Z,0.80
2022-10-15T12:25:33.655Z,0.90
2022-10-15T12:28:17.050Z,0.77
2022-10-15T12:30:54.400Z,0.80
2022-10-15T12:33:28.381Z,1.00
2022-10-15T12:35:57.467Z,0.93
2022-10-15T12:38:30.035Z,0.80
2022-10-15T12:41:00.173Z,3.03
2022-10-15T12:43:27.038Z,2.40
2022-10-15T12:46:02.828Z,0.93
2022-10-15T12:48:37.974Z,0.80
2022-10-15T12:51:16.703Z,0.90
2022-10-15T12:53:44.872Z,1.00
2022-10-15T12:56:13.626Z,0.90
2022-10-15T12:58:44.467Z,0.90
2022-10-15T13:01:13.929Z,0.83
2022-10-15T13:03:52.517Z,1.10
2022-10-15T13:06:22.263Z,1.17
2022-10-15T13:09:25.209Z,0.90
2022-10-15T13:11:53.559Z,0.90
2022-10-15T13:14:20.000Z,0.93
2022-10-15T13:16:48.268Z,0.80
2022-10-15T13:19:20.160Z,0.97
2022-10-15T13:21:54.843Z,1.40
2022-10-15T13:24:24.180Z,1.60
2022-10-15T13:26:52.514Z,1.13
2022-10-15T13:29:24.690Z,1.10
2022-10-15T13:31:56.339Z,0.80
2022-10-15T13:34:32.915Z,0.90
2022-10-15T13:37:01.053Z,0.90
2022-10-15T13:39:39.315Z,1.20
2022-10-15T13:42:13.411Z,2.00
2022-10-15T13:44:40.430Z,0.90
2022-10-15T13:47:43.267Z,0.83
2022-10-15T13:50:27.625Z,0.87
2022-10-15T13:53:02.992Z,0.90
2022-10-15T13:55:33.705Z,1.10
2022-10-15T13:58:23.537Z,0.90
2022-10-15T14:00:59.822Z,1.00
2022-10-15T14:03:34.527Z,1.00
2022-10-15T14:06:17.985Z,1.00
2022-10-15T14:08:49.035Z,1.03
2022-10-15T14:11:16.012Z,1.00
2022-10-15T14:13:53.883Z,1.00
2022-10-15T14:16:24.163Z,0.80
2022-10-15T14:18:56.358Z,1.10
2022-10-15T14:21:28.963Z,0.80
2022-10-15T14:24:16.925Z,1.30
2022-10-15T14:26:44.321Z,0.70
2022-10-15T14:29:24.645Z,0.80
2022-10-15T14:31:53.095Z,0.80
2022-10-15T14:34:38.574Z,1.00
2022-10-15T14:37:36.393Z,0.90
2022-10-15T14:40:09.771Z,0.90
2022-10-15T14:42:56.555Z,0.90
2022-10-15T14:45:27.117Z,1.00
2022-10-15T14:48:19.222Z,1.10
2022-10-15T14:50:46.126Z,1.20
2022-10-15T14:53:19.211Z,1.13
2022-10-15T14:55:52.878Z,1.00
2022-10-15T14:58:21.996Z,1.43
2022-10-15T15:00:55.401Z,1.10
2022-10-15T15:03:27.653Z,1.30
2022-10-15T15:05:56.857Z,1.23
2022-10-15T15:08:24.949Z,1.10
2022-10-15T15:10:55.499Z,2.60
2022-10-15T15:13:26.837Z,1.20
2022-10-15T15:15:53.889Z,2.10
2022-10-15T15:18:21.181Z,1.10
2022-10-15T15:20:49.293Z,1.27
2022-10-15T15:23:24.612Z,1.27
2022-10-15T15:25:53.155Z,1.40
2022-10-15T15:28:24.622Z,1.30
2022-10-15T15:31:00.936Z,1.83
2022-10-15T15:33:30.875Z,1.47
2022-10-15T15:36:05.094Z,3.30
2022-10-15T15:38:31.821Z,1.40
2022-10-15T15:41:12.690Z,1.03
2022-10-15T15:43:39.504Z,0.90
2022-10-15T15:46:06.197Z,1.00
2022-10-15T15:48:35.156Z,0.90
2022-10-15T15:51:20.474Z,1.10
2022-10-15T15:53:47.160Z,1.30
2022-10-15T15:56:13.705Z,1.10
2022-10-15T15:58:40.174Z,1.53
2022-10-15T16:01:06.654Z,1.97
2022-10-15T16:03:33.122Z,1.63
2022-10-15T16:05:59.659Z,1.90
2022-10-15T16:08:26.302Z,1.97
2022-10-15T16:10:52.986Z,1.73
2022-10-15T16:13:19.499Z,1.87
2022-10-15T16:15:46.032Z,1.90
2022-10-15T16:18:12.544Z,2.60
2022-10-15T16:20:46.315Z,2.43
2022-10-15T16:23:14.399Z,2.70
2022-10-15T16:25:40.896Z,2.43
2022-10-15T16:28:07.410Z,2.33
2022-10-15T16:30:33.865Z,2.13
2022-10-15T16:33:00.379Z,2.47
2022-10-15T16:35:27.004Z,4.13
2022-10-15T16:37:56.078Z,4.03
2022-10-15T16:40:22.927Z,3.83
2022-10-15T16:42:49.447Z,3.93
2022-10-15T16:45:16.888Z,3.50
2022-10-15T16:47:44.004Z,4.80
2022-10-15T16:50:10.889Z,5.40
2022-10-15T16:52:37.404Z,3.57
2022-10-15T16:55:04.103Z,2.70
2022-10-15T16:57:30.661Z,3.70
2022-10-15T16:59:57.253Z,3.37
2022-10-15T17:02:23.978Z,3.57
2022-10-15T17:04:50.846Z,3.50
2022-10-15T17:07:17.326Z,3.50
2022-10-15T17:09:45.118Z,3.30
2022-10-15T17:12:11.786Z,3.63
2022-10-15T17:14:38.320Z,3.63
2022-10-15T17:17:05.339Z,4.70
2022-10-15T17:19:34.446Z,3.07
2022-10-15T17:22:00.994Z,3.20
2022-10-15T17:24:27.773Z,3.00
2022-10-15T17:26:54.755Z,3.30
2022-10-15T17:29:23.013Z,3.30
2022-10-15T17:31:50.781Z,3.90
2022-10-15T17:34:17.814Z,3.70
2022-10-15T17:36:47.178Z,4.30
2022-10-15T17:39:16.177Z,5.10
2022-10-15T17:41:43.222Z,5.67
2022-10-15T17:44:11.626Z,5.70
2022-10-15T17:46:38.605Z,5.53
2022-10-15T17:49:05.694Z,4.80
2022-10-15T17:51:33.171Z,4.13
2022-10-15T17:54:00.346Z,4.67
2022-10-15T17:56:30.551Z,4.10
2022-10-15T17:59:02.065Z,4.47
2022-10-15T18:01:56.633Z,4.37
2022-10-15T18:04:17.421Z,4.10
2022-10-15T18:06:46.391Z,4.00
2022-10-15T18:09:13.144Z,3.87
2022-10-15T18:11:39.800Z,4.30
2022-10-15T18:14:06.315Z,4.30
2022-10-15T18:16:32.877Z,4.17
2022-10-15T18:18:59.524Z,4.07
2022-10-15T18:21:27.416Z,4.13
2022-10-15T18:23:56.447Z,3.73
2022-10-15T18:26:23.763Z,4.10
2022-10-15T18:28:52.899Z,3.77
2022-10-15T18:31:20.802Z,3.50
2022-10-15T18:33:52.112Z,3.30
2022-10-15T18:36:23.997Z,3.80
2022-10-15T18:38:53.435Z,3.60
2022-10-15T18:41:33.555Z,4.20
2022-10-15T18:44:03.432Z,4.00
2022-10-15T18:46:31.139Z,4.73
2022-10-15T18:48:58.312Z,5.60
2022-10-15T18:51:27.672Z,6.40
2022-10-15T18:53:54.963Z,5.93
2022-10-15T18:56:22.167Z,6.10
2022-10-15T18:59:26.400Z,5.03
2022-10-15T19:02:33.683Z,5.40
2022-10-15T19:05:02.601Z,4.03
2022-10-15T19:07:31.697Z,4.63
2022-10-15T19:09:59.089Z,4.47
2022-10-15T19:12:26.453Z,4.33
2022-10-15T19:14:53.496Z,3.97
2022-10-15T19:17:20.081Z,4.80
2022-10-15T19:19:50.444Z,4.57
2022-10-15T19:22:18.295Z,4.27
2022-10-15T19:24:44.863Z,4.57
2022-10-15T19:27:11.662Z,4.17
2022-10-15T19:29:39.192Z,4.73
2022-10-15T19:32:05.956Z,4.40
2022-10-15T19:34:35.215Z,4.73
2022-10-15T19:37:01.938Z,4.80
2022-10-15T19:39:29.231Z,4.70
2022-10-15T19:41:55.787Z,5.07
2022-10-15T19:44:25.688Z,3.73
2022-10-15T19:46:53.866Z,4.10
2022-10-15T19:49:20.707Z,4.20
2022-10-15T19:51:48.358Z,4.47
2022-10-15T19:54:15.341Z,4.10
2022-10-15T19:56:42.331Z,4.07
2022-10-15T19:59:10.828Z,4.97
2022-10-15T20:01:37.567Z,4.43
2022-10-15T20:04:06.933Z,4.60
2022-10-15T20:06:35.691Z,4.93
2022-10-15T20:09:02.318Z,4.60
2022-10-15T20:11:29.322Z,5.60
2022-10-15T20:13:56.567Z,5.63
2022-10-15T20:16:23.770Z,7.37
2022-10-15T20:18:51.754Z,6.27
2022-10-15T20:21:18.295Z,5.97
2022-10-15T20:23:45.317Z,5.40
2022-10-15T20:26:14.108Z,5.70
2022-10-15T20:28:42.703Z,5.30
2022-10-15T20:31:12.904Z,5.40
2022-10-15T20:33:40.342Z,6.97
2022-10-15T20:36:09.149Z,6.47
2022-10-15T20:38:36.646Z,7.67
2022-10-15T20:41:12.193Z,6.97
2022-10-15T20:43:39.024Z,7.47
2022-10-15T20:46:27.215Z,6.50
2022-10-15T20:48:56.197Z,6.60
2022-10-15T20:51:27.555Z,6.50
2022-10-15T20:53:55.574Z,7.37
2022-10-15T20:56:23.511Z,6.17
2022-10-15T20:58:50.004Z,5.77
2022-10-15T21:01:17.250Z,5.80
2022-10-15T21:03:43.953Z,6.33
2022-10-15T21:06:10.698Z,5.70
2022-10-15T21:08:37.162Z,5.90
2022-10-15T21:11:04.766Z,5.00
2022-10-15T21:13:31.545Z,5.50
2022-10-15T21:16:03.681Z,6.10
2022-10-15T21:18:30.202Z,6.33
2022-10-15T21:21:05.817Z,6.80
2022-10-15T21:23:32.819Z,4.77
2022-10-15T21:26:06.887Z,4.43
2022-10-15T21:28:34.560Z,4.47
2022-10-15T21:31:09.416Z,5.00
2022-10-15T21:33:36.191Z,4.30
2022-10-15T21:36:12.868Z,5.03
2022-10-15T21:38:39.804Z,4.70
2022-10-15T21:41:07.364Z,4.27
2022-10-15T21:43:34.403Z,4.87
2022-10-15T21:46:08.764Z,4.70
2022-10-15T21:48:38.605Z,4.27
2022-10-15T21:51:24.059Z,4.70
2022-10-15T21:53:50.945Z,5.27
2022-10-15T21:56:17.812Z,5.40
2022-10-15T21:58:44.595Z,4.23
2022-10-15T22:01:19.128Z,4.30
2022-10-15T22:03:46.733Z,4.70
2022-10-15T22:06:13.621Z,4.60
2022-10-15T22:08:40.783Z,4.30
2022-10-15T22:11:14.873Z,4.10
2022-10-15T22:13:42.933Z,4.23
2022-10-15T22:16:10.388Z,3.60
2022-10-15T22:18:37.355Z,4.17
2022-10-15T22:21:24.897Z,3.87
2022-10-15T22:24:03.426Z,6.20
2022-10-15T22:26:32.348Z,3.80
2022-10-15T22:29:00.339Z,3.77
2022-10-15T22:31:27.345Z,3.53
2022-10-15T22:33:54.373Z,4.40
2022-10-15T22:36:23.610Z,4.10
2022-10-15T22:41:27.981Z,4.50
2022-10-15T22:43:54.490Z,4.17
2022-10-15T22:46:20.940Z,3.90
2022-10-15T22:48:49.362Z,4.10
2022-10-15T22:51:16.539Z,4.40
2022-10-15T22:53:43.334Z,3.83
2022-10-15T22:56:15.476Z,3.40
2022-10-15T22:58:42.064Z,3.73
2022-10-15T23:01:18.693Z,3.63
2022-10-15T23:03:47.546Z,3.87
2022-10-15T23:06:14.726Z,3.80
2022-10-15T23:08:41.670Z,3.20
2022-10-15T23:11:11.106Z,3.53
2022-10-15T23:13:38.807Z,3.70
2022-10-15T23:16:07.103Z,3.40
2022-10-15T23:18:34.003Z,3.03
2022-10-15T23:21:10.709Z,3.10
2022-10-15T23:23:37.279Z,3.30
2022-10-15T23:26:03.782Z,3.37
2022-10-15T23:28:30.234Z,3.67
2022-10-15T23:30:56.831Z,3.13
2022-10-15T23:33:23.871Z,3.23
2022-10-15T23:36:00.752Z,3.40
2022-10-15T23:38:28.378Z,3.40
2022-10-15T23:41:02.161Z,2.57
2022-10-15T23:43:29.399Z,3.93
2022-10-15T23:45:56.275Z,3.20
2022-10-15T23:48:22.893Z,3.13
2022-10-15T23:50:50.075Z,3.03
2022-10-15T23:53:17.487Z,2.70
2022-10-15T23:55:44.218Z,2.70
2022-10-15T23:58:11.229Z,3.10
